sensor_id;sensor_type;location;lat;lon;timestamp;temperature;humidity
2174;DHT22;1093;51.424;11.764;2022-09-17T00:00:41;12.60;1.40
2174;DHT22;1093;51.424;11.764;2022-09-17T00:03:09;12.60;1.40
2174;DHT22;1093;51.424;11.764;2022-09-17T00:05:36;12.60;1.40
2174;DHT22;1093;51.424;11.764;2022-09-17T00:08:03;12.60;1.40
2174;DHT22;1093;51.424;11.764;2022-09-17T00:10:31;12.60;1.40
2174;DHT22;1093;51.424;11.764;2022-09-17T00:12:57;12.60;1.40
2174;DHT22;1093;51.424;11.764;2022-09-17T00:15:24;12.60;1.40
2174;DHT22;1093;51.424;11.764;2022-09-17T00:17:54;12.60;1.40
2174;DHT22;1093;51.424;11.764;2022-09-17T00:20:22;12.60;1.40
2174;DHT22;1093;51.424;11.764;2022-09-17T00:22:48;12.60;1.40
2174;DHT22;1093;51.424;11.764;2022-09-17T00:25:15;12.70;1.40
2174;DHT22;1093;51.424;11.764;2022-09-17T00:27:42;12.60;1.40
2174;DHT22;1093;51.424;11.764;2022-09-17T00:30:10;12.70;1.40
2174;DHT22;1093;51.424;11.764;2022-09-17T00:32:37;12.60;1.40
2174;DHT22;1093;51.424;11.764;2022-09-17T00:35:06;12.70;1.40
2174;DHT22;1093;51.424;11.764;2022-09-17T00:37:33;12.70;1.40
2174;DHT22;1093;51.424;11.764;2022-09-17T00:40:00;12.70;1.40
2174;DHT22;1093;51.424;11.764;2022-09-17T00:42:26;12.70;1.40
2174;DHT22;1093;51.424;11.764;2022-09-17T00:44:54;12.60;1.40
2174;DHT22;1093;51.424;11.764;2022-09-17T00:47:26;12.60;1.40
2174;DHT22;1093;51.424;11.764;2022-09-17T00:49:56;12.60;1.40
2174;DHT22;1093;51.424;11.764;2022-09-17T00:52:28;12.70;1.40
2174;DHT22;1093;51.424;11.764;2022-09-17T00:55:00;12.60;1.40
2174;DHT22;1093;51.424;11.764;2022-09-17T00:57:30;12.60;1.40
2174;DHT22;1093;51.424;11.764;2022-09-17T00:59:57;12.60;1.40
2174;DHT22;1093;51.424;11.764;2022-09-17T01:02:24;12.60;1.40
2174;DHT22;1093;51.424;11.764;2022-09-17T01:04:51;12.60;1.40
2174;DHT22;1093;51.424;11.764;2022-09-17T01:07:38;12.60;1.40
2174;DHT22;1093;51.424;11.764;2022-09-17T01:10:12;12.60;1.40
2174;DHT22;1093;51.424;11.764;2022-09-17T01:13:02;12.50;1.40
2174;DHT22;1093;51.424;11.764;2022-09-17T01:15:35;12.50;1.40
2174;DHT22;1093;51.424;11.764;2022-09-17T01:18:13;12.50;1.40
2174;DHT22;1093;51.424;11.764;2022-09-17T01:21:08;12.50;1.40
2174;DHT22;1093;51.424;11.764;2022-09-17T01:27:17;12.40;1.40
2174;DHT22;1093;51.424;11.764;2022-09-17T01:30:06;12.50;1.40
2174;DHT22;1093;51.424;11.764;2022-09-17T01:32:43;12.40;1.40
2174;DHT22;1093;51.424;11.764;2022-09-17T01:35:16;12.40;1.40
2174;DHT22;1093;51.424;11.764;2022-09-17T01:37:50;12.40;1.40
2174;DHT22;1093;51.424;11.764;2022-09-17T01:40:24;12.40;1.40
2174;DHT22;1093;51.424;11.764;2022-09-17T01:42:56;12.40;1.40
2174;DHT22;1093;51.424;11.764;2022-09-17T01:45:31;12.40;1.40
2174;DHT22;1093;51.424;11.764;2022-09-17T01:48:03;12.40;1.40
2174;DHT22;1093;51.424;11.764;2022-09-17T01:50:40;12.40;1.40
2174;DHT22;1093;51.424;11.764;2022-09-17T01:53:09;12.40;1.40
2174;DHT22;1093;51.424;11.764;2022-09-17T01:55:38;12.40;1.40
2174;DHT22;1093;51.424;11.764;2022-09-17T01:58:11;12.30;1.40
2174;DHT22;1093;51.424;11.764;2022-09-17T02:00:39;12.30;1.40
2174;DHT22;1093;51.424;11.764;2022-09-17T02:03:13;12.30;1.40
2174;DHT22;1093;51.424;11.764;2022-09-17T02:05:44;12.30;1.40
2174;DHT22;1093;51.424;11.764;2022-09-17T02:08:15;12.30;1.40
2174;DHT22;1093;51.424;11.764;2022-09-17T02:10:45;12.30;1.40
2174;DHT22;1093;51.424;11.764;2022-09-17T02:13:15;12.30;1.40
2174;DHT22;1093;51.424;11.764;2022-09-17T02:15:48;12.30;1.40
2174;DHT22;1093;51.424;11.764;2022-09-17T02:18:21;12.30;1.40
2174;DHT22;1093;51.424;11.764;2022-09-17T02:20:53;12.30;1.40
2174;DHT22;1093;51.424;11.764;2022-09-17T02:23:27;12.30;1.40
2174;DHT22;1093;51.424;11.764;2022-09-17T02:25:58;12.20;1.40
2174;DHT22;1093;51.424;11.764;2022-09-17T02:28:30;12.30;1.40
2174;DHT22;1093;51.424;11.764;2022-09-17T02:30:58;12.20;1.40
2174;DHT22;1093;51.424;11.764;2022-09-17T02:33:27;12.20;1.40
2174;DHT22;1093;51.424;11.764;2022-09-17T02:35:55;12.30;1.40
2174;DHT22;1093;51.424;11.764;2022-09-17T02:38:24;12.30;1.40
2174;DHT22;1093;51.424;11.764;2022-09-17T02:40:56;12.30;1.40
2174;DHT22;1093;51.424;11.764;2022-09-17T02:43:29;12.30;1.40
2174;DHT22;1093;51.424;11.764;2022-09-17T02:46:06;12.30;1.40
2174;DHT22;1093;51.424;11.764;2022-09-17T02:48:55;12.30;1.40
2174;DHT22;1093;51.424;11.764;2022-09-17T02:51:32;12.30;1.40
2174;DHT22;1093;51.424;11.764;2022-09-17T02:54:06;12.20;1.40
2174;DHT22;1093;51.424;11.764;2022-09-17T02:56:43;12.30;1.40
2174;DHT22;1093;51.424;11.764;2022-09-17T02:59:16;12.30;1.40
2174;DHT22;1093;51.424;11.764;2022-09-17T03:01:46;12.30;1.40
2174;DHT22;1093;51.424;11.764;2022-09-17T03:04:17;12.30;1.40
2174;DHT22;1093;51.424;11.764;2022-09-17T03:06:45;12.30;1.40
2174;DHT22;1093;51.424;11.764;2022-09-17T03:09:13;12.30;1.40
2174;DHT22;1093;51.424;11.764;2022-09-17T03:11:40;12.40;1.40
2174;DHT22;1093;51.424;11.764;2022-09-17T03:14:07;12.30;1.40
2174;DHT22;1093;51.424;11.764;2022-09-17T03:16:34;12.40;1.40
2174;DHT22;1093;51.424;11.764;2022-09-17T03:19:00;12.40;1.40
2174;DHT22;1093;51.424;11.764;2022-09-17T03:21:28;12.40;1.40
2174;DHT22;1093;51.424;11.764;2022-09-17T03:23:55;12.40;1.40
2174;DHT22;1093;51.424;11.764;2022-09-17T03:26:24;12.40;1.40
2174;DHT22;1093;51.424;11.764;2022-09-17T03:28:51;12.40;1.40
2174;DHT22;1093;51.424;11.764;2022-09-17T03:31:18;12.40;1.40
2174;DHT22;1093;51.424;11.764;2022-09-17T03:33:44;12.40;1.40
2174;DHT22;1093;51.424;11.764;2022-09-17T03:36:11;12.40;1.40
2174;DHT22;1093;51.424;11.764;2022-09-17T03:38:39;12.40;1.40
2174;DHT22;1093;51.424;11.764;2022-09-17T03:41:06;12.30;1.40
2174;DHT22;1093;51.424;11.764;2022-09-17T03:43:33;12.40;1.40
2174;DHT22;1093;51.424;11.764;2022-09-17T03:46:00;12.40;1.40
2174;DHT22;1093;51.424;11.764;2022-09-17T03:48:26;12.40;1.40
2174;DHT22;1093;51.424;11.764;2022-09-17T03:50:54;12.40;1.40
2174;DHT22;1093;51.424;11.764;2022-09-17T03:53:21;12.40;1.40
2174;DHT22;1093;51.424;11.764;2022-09-17T03:55:49;12.40;1.40
2174;DHT22;1093;51.424;11.764;2022-09-17T03:58:15;12.40;1.40
2174;DHT22;1093;51.424;11.764;2022-09-17T04:00:43;12.40;1.40
2174;DHT22;1093;51.424;11.764;2022-09-17T04:03:10;12.40;1.40
2174;DHT22;1093;51.424;11.764;2022-09-17T04:05:37;12.40;1.40
2174;DHT22;1093;51.424;11.764;2022-09-17T04:08:03;12.40;1.40
2174;DHT22;1093;51.424;11.764;2022-09-17T04:10:30;12.40;1.40
2174;DHT22;1093;51.424;11.764;2022-09-17T04:12:58;12.40;1.40
2174;DHT22;1093;51.424;11.764;2022-09-17T04:15:25;12.40;1.40
2174;DHT22;1093;51.424;11.764;2022-09-17T04:17:54;12.40;1.40
2174;DHT22;1093;51.424;11.764;2022-09-17T04:20:22;12.40;1.40
2174;DHT22;1093;51.424;11.764;2022-09-17T04:22:49;12.40;1.40
2174;DHT22;1093;51.424;11.764;2022-09-17T04:25:16;12.40;1.40
2174;DHT22;1093;51.424;11.764;2022-09-17T04:27:43;12.40;1.40
2174;DHT22;1093;51.424;11.764;2022-09-17T04:30:11;12.40;1.40
2174;DHT22;1093;51.424;11.764;2022-09-17T04:32:39;12.40;1.40
2174;DHT22;1093;51.424;11.764;2022-09-17T04:35:06;12.40;1.40
2174;DHT22;1093;51.424;11.764;2022-09-17T04:37:33;12.40;1.40
2174;DHT22;1093;51.424;11.764;2022-09-17T04:40:00;12.40;1.40
2174;DHT22;1093;51.424;11.764;2022-09-17T04:42:27;12.40;1.40
2174;DHT22;1093;51.424;11.764;2022-09-17T04:44:53;12.40;1.40
2174;DHT22;1093;51.424;11.764;2022-09-17T04:47:21;12.40;1.40
2174;DHT22;1093;51.424;11.764;2022-09-17T04:49:48;12.40;1.40
2174;DHT22;1093;51.424;11.764;2022-09-17T04:52:15;12.40;1.40
2174;DHT22;1093;51.424;11.764;2022-09-17T04:54:41;12.40;1.40
2174;DHT22;1093;51.424;11.764;2022-09-17T04:57:08;12.40;1.40
2174;DHT22;1093;51.424;11.764;2022-09-17T04:59:35;12.40;1.40
2174;DHT22;1093;51.424;11.764;2022-09-17T05:02:01;12.30;1.40
2174;DHT22;1093;51.424;11.764;2022-09-17T05:04:29;12.30;1.40
2174;DHT22;1093;51.424;11.764;2022-09-17T05:06:56;12.40;1.40
2174;DHT22;1093;51.424;11.764;2022-09-17T05:09:23;12.40;1.40
2174;DHT22;1093;51.424;11.764;2022-09-17T05:11:49;12.30;1.40
2174;DHT22;1093;51.424;11.764;2022-09-17T05:14:16;12.30;1.40
2174;DHT22;1093;51.424;11.764;2022-09-17T05:16:43;12.30;1.40
2174;DHT22;1093;51.424;11.764;2022-09-17T05:19:09;12.30;1.40
2174;DHT22;1093;51.424;11.764;2022-09-17T05:21:37;12.30;1.40
2174;DHT22;1093;51.424;11.764;2022-09-17T05:24:04;12.30;1.40
2174;DHT22;1093;51.424;11.764;2022-09-17T05:26:31;12.30;1.40
2174;DHT22;1093;51.424;11.764;2022-09-17T05:28:58;12.20;1.40
2174;DHT22;1093;51.424;11.764;2022-09-17T05:31:24;12.20;1.40
2174;DHT22;1093;51.424;11.764;2022-09-17T05:33:51;12.20;1.40
2174;DHT22;1093;51.424;11.764;2022-09-17T05:36:18;12.20;1.40
2174;DHT22;1093;51.424;11.764;2022-09-17T05:38:46;12.30;1.40
2174;DHT22;1093;51.424;11.764;2022-09-17T05:41:13;12.30;1.40
2174;DHT22;1093;51.424;11.764;2022-09-17T05:43:42;12.30;1.40
2174;DHT22;1093;51.424;11.764;2022-09-17T05:46:08;12.30;1.40
2174;DHT22;1093;51.424;11.764;2022-09-17T05:48:35;12.30;1.40
2174;DHT22;1093;51.424;11.764;2022-09-17T05:51:02;12.30;1.40
2174;DHT22;1093;51.424;11.764;2022-09-17T05:53:29;12.30;1.40
2174;DHT22;1093;51.424;11.764;2022-09-17T05:55:58;12.30;1.40
2174;DHT22;1093;51.424;11.764;2022-09-17T05:58:25;12.30;1.40
2174;DHT22;1093;51.424;11.764;2022-09-17T06:00:51;12.30;1.40
2174;DHT22;1093;51.424;11.764;2022-09-17T06:03:19;12.30;1.40
2174;DHT22;1093;51.424;11.764;2022-09-17T06:05:52;12.40;1.40
2174;DHT22;1093;51.424;11.764;2022-09-17T06:08:19;12.40;1.40
2174;DHT22;1093;51.424;11.764;2022-09-17T06:10:46;12.50;1.40
2174;DHT22;1093;51.424;11.764;2022-09-17T06:13:14;12.50;1.40
2174;DHT22;1093;51.424;11.764;2022-09-17T06:15:41;12.50;1.40
2174;DHT22;1093;51.424;11.764;2022-09-17T06:18:08;12.60;1.40
2174;DHT22;1093;51.424;11.764;2022-09-17T06:20:34;12.60;1.40
2174;DHT22;1093;51.424;11.764;2022-09-17T06:23:01;12.60;1.40
2174;DHT22;1093;51.424;11.764;2022-09-17T06:25:28;12.70;1.40
2174;DHT22;1093;51.424;11.764;2022-09-17T06:27:56;12.70;1.40
2174;DHT22;1093;51.424;11.764;2022-09-17T06:30:24;12.80;1.40
2174;DHT22;1093;51.424;11.764;2022-09-17T06:32:51;12.80;1.40
2174;DHT22;1093;51.424;11.764;2022-09-17T06:35:17;12.80;1.40
2174;DHT22;1093;51.424;11.764;2022-09-17T06:37:44;12.80;1.40
2174;DHT22;1093;51.424;11.764;2022-09-17T06:40:11;12.80;1.40
2174;DHT22;1093;51.424;11.764;2022-09-17T06:42:38;12.90;1.40
2174;DHT22;1093;51.424;11.764;2022-09-17T06:45:05;12.90;1.40
2174;DHT22;1093;51.424;11.764;2022-09-17T06:47:34;12.90;1.40
2174;DHT22;1093;51.424;11.764;2022-09-17T06:50:00;13.00;1.40
2174;DHT22;1093;51.424;11.764;2022-09-17T06:52:27;13.10;1.40
2174;DHT22;1093;51.424;11.764;2022-09-17T06:54:54;13.10;1.40
2174;DHT22;1093;51.424;11.764;2022-09-17T06:57:20;13.10;1.40
2174;DHT22;1093;51.424;11.764;2022-09-17T06:59:47;13.20;1.40
2174;DHT22;1093;51.424;11.764;2022-09-17T07:02:15;13.20;1.40
2174;DHT22;1093;51.424;11.764;2022-09-17T07:04:43;13.30;1.40
2174;DHT22;1093;51.424;11.764;2022-09-17T07:07:10;13.30;1.40
2174;DHT22;1093;51.424;11.764;2022-09-17T07:09:36;13.30;1.40
2174;DHT22;1093;51.424;11.764;2022-09-17T07:12:06;13.40;1.40
2174;DHT22;1093;51.424;11.764;2022-09-17T07:14:33;13.50;1.40
2174;DHT22;1093;51.424;11.764;2022-09-17T07:17:00;13.60;1.40
2174;DHT22;1093;51.424;11.764;2022-09-17T07:19:26;13.60;1.40
2174;DHT22;1093;51.424;11.764;2022-09-17T07:21:54;13.70;1.40
2174;DHT22;1093;51.424;11.764;2022-09-17T07:24:21;13.70;1.40
2174;DHT22;1093;51.424;11.764;2022-09-17T07:26:49;13.80;1.40
2174;DHT22;1093;51.424;11.764;2022-09-17T07:29:15;13.90;1.40
2174;DHT22;1093;51.424;11.764;2022-09-17T07:31:42;14.00;1.40
2174;DHT22;1093;51.424;11.764;2022-09-17T07:34:09;14.00;1.40
2174;DHT22;1093;51.424;11.764;2022-09-17T07:36:36;14.20;1.40
2174;DHT22;1093;51.424;11.764;2022-09-17T07:39:04;14.20;1.40
2174;DHT22;1093;51.424;11.764;2022-09-17T07:41:31;14.20;1.40
2174;DHT22;1093;51.424;11.764;2022-09-17T07:43:58;14.20;1.40
2174;DHT22;1093;51.424;11.764;2022-09-17T07:46:27;14.20;1.40
2174;DHT22;1093;51.424;11.764;2022-09-17T07:48:54;14.30;1.40
2174;DHT22;1093;51.424;11.764;2022-09-17T07:51:22;14.30;1.40
2174;DHT22;1093;51.424;11.764;2022-09-17T07:53:50;14.30;1.40
2174;DHT22;1093;51.424;11.764;2022-09-17T07:56:19;14.40;1.40
2174;DHT22;1093;51.424;11.764;2022-09-17T07:58:45;14.40;1.40
2174;DHT22;1093;51.424;11.764;2022-09-17T08:01:13;14.40;1.40
2174;DHT22;1093;51.424;11.764;2022-09-17T08:03:42;14.50;1.40
2174;DHT22;1093;51.424;11.764;2022-09-17T08:06:11;14.50;1.40
2174;DHT22;1093;51.424;11.764;2022-09-17T08:08:38;14.60;1.40
2174;DHT22;1093;51.424;11.764;2022-09-17T08:11:06;14.60;1.40
2174;DHT22;1093;51.424;11.764;2022-09-17T08:13:38;14.70;1.40
2174;DHT22;1093;51.424;11.764;2022-09-17T08:16:06;14.70;1.40
2174;DHT22;1093;51.424;11.764;2022-09-17T08:18:34;14.70;1.40
2174;DHT22;1093;51.424;11.764;2022-09-17T08:21:02;14.80;1.40
2174;DHT22;1093;51.424;11.764;2022-09-17T08:23:30;14.70;1.40
2174;DHT22;1093;51.424;11.764;2022-09-17T08:25:58;14.80;1.40
2174;DHT22;1093;51.424;11.764;2022-09-17T08:28:27;14.80;1.40
2174;DHT22;1093;51.424;11.764;2022-09-17T08:30:59;14.80;1.40
2174;DHT22;1093;51.424;11.764;2022-09-17T08:33:29;14.90;1.40
2174;DHT22;1093;51.424;11.764;2022-09-17T08:35:56;14.90;1.40
2174;DHT22;1093;51.424;11.764;2022-09-17T08:38:24;14.90;1.40
2174;DHT22;1093;51.424;11.764;2022-09-17T08:40:58;15.00;1.40
2174;DHT22;1093;51.424;11.764;2022-09-17T08:43:30;15.00;1.40
2174;DHT22;1093;51.424;11.764;2022-09-17T08:46:00;15.00;1.40
2174;DHT22;1093;51.424;11.764;2022-09-17T08:48:33;15.10;1.40
2174;DHT22;1093;51.424;11.764;2022-09-17T08:51:06;15.20;1.40
2174;DHT22;1093;51.424;11.764;2022-09-17T08:53:47;15.30;1.40
2174;DHT22;1093;51.424;11.764;2022-09-17T08:56:19;15.40;1.40
2174;DHT22;1093;51.424;11.764;2022-09-17T08:58:58;15.40;1.40
2174;DHT22;1093;51.424;11.764;2022-09-17T09:01:36;15.40;1.40
2174;DHT22;1093;51.424;11.764;2022-09-17T09:04:35;15.40;1.40
2174;DHT22;1093;51.424;11.764;2022-09-17T09:07:07;15.30;1.40
2174;DHT22;1093;51.424;11.764;2022-09-17T09:09:38;15.30;1.40
2174;DHT22;1093;51.424;11.764;2022-09-17T09:12:10;15.40;1.40
2174;DHT22;1093;51.424;11.764;2022-09-17T09:14:47;15.40;1.40
2174;DHT22;1093;51.424;11.764;2022-09-17T09:17:17;15.40;1.40
2174;DHT22;1093;51.424;11.764;2022-09-17T09:19:47;15.50;1.40
2174;DHT22;1093;51.424;11.764;2022-09-17T09:22:29;15.50;1.40
2174;DHT22;1093;51.424;11.764;2022-09-17T09:25:04;15.60;1.40
2174;DHT22;1093;51.424;11.764;2022-09-17T09:27:36;15.60;1.40
2174;DHT22;1093;51.424;11.764;2022-09-17T09:30:08;15.60;1.40
2174;DHT22;1093;51.424;11.764;2022-09-17T09:32:50;15.60;1.40
2174;DHT22;1093;51.424;11.764;2022-09-17T09:35:22;15.60;1.40
2174;DHT22;1093;51.424;11.764;2022-09-17T09:37:54;15.70;1.40
2174;DHT22;1093;51.424;11.764;2022-09-17T09:40:32;15.70;1.40
2174;DHT22;1093;51.424;11.764;2022-09-17T09:43:02;15.80;1.40
2174;DHT22;1093;51.424;11.764;2022-09-17T09:45:39;15.70;1.40
2174;DHT22;1093;51.424;11.764;2022-09-17T09:48:17;15.60;1.40
2174;DHT22;1093;51.424;11.764;2022-09-17T09:50:59;15.50;1.40
2174;DHT22;1093;51.424;11.764;2022-09-17T09:53:38;15.40;1.40
2174;DHT22;1093;51.424;11.764;2022-09-17T09:56:24;15.30;1.40
2174;DHT22;1093;51.424;11.764;2022-09-17T09:58:52;15.20;1.40
2174;DHT22;1093;51.424;11.764;2022-09-17T10:01:19;15.10;1.40
2174;DHT22;1093;51.424;11.764;2022-09-17T10:03:49;15.10;1.40
2174;DHT22;1093;51.424;11.764;2022-09-17T10:06:18;15.00;1.40
2174;DHT22;1093;51.424;11.764;2022-09-17T10:09:10;15.00;1.40
2174;DHT22;1093;51.424;11.764;2022-09-17T10:11:37;14.90;1.40
2174;DHT22;1093;51.424;11.764;2022-09-17T10:14:20;15.00;1.40
2174;DHT22;1093;51.424;11.764;2022-09-17T10:16:48;15.00;1.40
2174;DHT22;1093;51.424;11.764;2022-09-17T10:19:20;14.90;1.40
2174;DHT22;1093;51.424;11.764;2022-09-17T10:21:50;14.90;1.40
2174;DHT22;1093;51.424;11.764;2022-09-17T10:24:22;14.70;1.40
2174;DHT22;1093;51.424;11.764;2022-09-17T10:26:50;14.60;1.40
2174;DHT22;1093;51.424;11.764;2022-09-17T10:29:19;14.50;1.40
2174;DHT22;1093;51.424;11.764;2022-09-17T10:31:47;14.40;1.40
2174;DHT22;1093;51.424;11.764;2022-09-17T10:34:23;14.30;1.40
2174;DHT22;1093;51.424;11.764;2022-09-17T10:36:51;14.30;1.40
2174;DHT22;1093;51.424;11.764;2022-09-17T10:39:29;14.40;1.40
2174;DHT22;1093;51.424;11.764;2022-09-17T10:41:58;14.50;1.40
2174;DHT22;1093;51.424;11.764;2022-09-17T10:44:26;14.60;1.40
2174;DHT22;1093;51.424;11.764;2022-09-17T10:46:54;14.60;1.40
2174;DHT22;1093;51.424;11.764;2022-09-17T10:49:35;14.60;1.40
2174;DHT22;1093;51.424;11.764;2022-09-17T10:52:09;14.70;1.40
2174;DHT22;1093;51.424;11.764;2022-09-17T10:55:00;14.80;1.40
2174;DHT22;1093;51.424;11.764;2022-09-17T10:57:43;14.80;1.40
2174;DHT22;1093;51.424;11.764;2022-09-17T11:00:15;14.70;1.40
2174;DHT22;1093;51.424;11.764;2022-09-17T11:03:08;14.60;1.40
2174;DHT22;1093;51.424;11.764;2022-09-17T11:06:05;14.60;1.40
2174;DHT22;1093;51.424;11.764;2022-09-17T11:08:40;14.50;1.40
2174;DHT22;1093;51.424;11.764;2022-09-17T11:11:17;14.50;1.40
2174;DHT22;1093;51.424;11.764;2022-09-17T11:13:59;14.50;1.40
2174;DHT22;1093;51.424;11.764;2022-09-17T11:16:36;14.50;1.40
2174;DHT22;1093;51.424;11.764;2022-09-17T11:19:14;14.60;1.40
2174;DHT22;1093;51.424;11.764;2022-09-17T11:21:47;14.70;1.40
2174;DHT22;1093;51.424;11.764;2022-09-17T11:24:46;14.80;1.40
2174;DHT22;1093;51.424;11.764;2022-09-17T11:30:15;15.00;1.40
2174;DHT22;1093;51.424;11.764;2022-09-17T11:33:16;15.00;1.40
2174;DHT22;1093;51.424;11.764;2022-09-17T11:35:47;15.10;1.40
2174;DHT22;1093;51.424;11.764;2022-09-17T11:38:20;15.20;1.40
2174;DHT22;1093;51.424;11.764;2022-09-17T11:40:54;15.20;1.40
2174;DHT22;1093;51.424;11.764;2022-09-17T11:43:26;15.20;1.40
2174;DHT22;1093;51.424;11.764;2022-09-17T11:45:59;15.30;1.40
2174;DHT22;1093;51.424;11.764;2022-09-17T11:48:33;15.40;1.40
2174;DHT22;1093;51.424;11.764;2022-09-17T11:51:05;15.50;1.40
2174;DHT22;1093;51.424;11.764;2022-09-17T11:53:38;15.50;1.40
2174;DHT22;1093;51.424;11.764;2022-09-17T11:56:14;15.50;1.40
2174;DHT22;1093;51.424;11.764;2022-09-17T11:58:45;15.40;1.40
2174;DHT22;1093;51.424;11.764;2022-09-17T12:01:18;15.40;1.40
2174;DHT22;1093;51.424;11.764;2022-09-17T12:03:50;15.40;1.40
2174;DHT22;1093;51.424;11.764;2022-09-17T12:06:22;15.50;1.40
2174;DHT22;1093;51.424;11.764;2022-09-17T12:08:56;15.50;1.40
2174;DHT22;1093;51.424;11.764;2022-09-17T12:11:29;15.50;1.40
2174;DHT22;1093;51.424;11.764;2022-09-17T12:14:02;15.60;1.40
2174;DHT22;1093;51.424;11.764;2022-09-17T12:16:36;15.70;1.40
2174;DHT22;1093;51.424;11.764;2022-09-17T12:19:11;15.70;1.40
2174;DHT22;1093;51.424;11.764;2022-09-17T12:21:41;15.80;1.40
2174;DHT22;1093;51.424;11.764;2022-09-17T12:24:15;15.90;1.40
2174;DHT22;1093;51.424;11.764;2022-09-17T12:27:04;15.90;1.40
2174;DHT22;1093;51.424;11.764;2022-09-17T12:30:02;16.00;1.40
2174;DHT22;1093;51.424;11.764;2022-09-17T12:32:43;16.00;1.40
2174;DHT22;1093;51.424;11.764;2022-09-17T12:35:22;16.00;1.40
2174;DHT22;1093;51.424;11.764;2022-09-17T12:38:04;16.10;1.40
2174;DHT22;1093;51.424;11.764;2022-09-17T12:40:39;16.10;1.40
2174;DHT22;1093;51.424;11.764;2022-09-17T12:43:21;16.10;1.40
2174;DHT22;1093;51.424;11.764;2022-09-17T12:46:11;16.20;1.40
2174;DHT22;1093;51.424;11.764;2022-09-17T12:48:54;16.10;1.40
2174;DHT22;1093;51.424;11.764;2022-09-17T12:51:42;16.10;1.40
2174;DHT22;1093;51.424;11.764;2022-09-17T12:54:20;16.10;1.40
2174;DHT22;1093;51.424;11.764;2022-09-17T12:56:56;16.10;1.40
2174;DHT22;1093;51.424;11.764;2022-09-17T12:59:29;16.30;1.40
2174;DHT22;1093;51.424;11.764;2022-09-17T13:02:00;16.30;1.40
2174;DHT22;1093;51.424;11.764;2022-09-17T13:04:49;16.40;1.40
2174;DHT22;1093;51.424;11.764;2022-09-17T13:07:52;16.50;1.40
2174;DHT22;1093;51.424;11.764;2022-09-17T13:10:49;16.50;1.40
2174;DHT22;1093;51.424;11.764;2022-09-17T13:13:36;16.60;1.40
2174;DHT22;1093;51.424;11.764;2022-09-17T13:16:08;16.70;1.40
2174;DHT22;1093;51.424;11.764;2022-09-17T13:18:40;16.70;1.40
2174;DHT22;1093;51.424;11.764;2022-09-17T13:21:10;16.70;1.40
2174;DHT22;1093;51.424;11.764;2022-09-17T13:23:40;16.80;1.40
2174;DHT22;1093;51.424;11.764;2022-09-17T13:26:09;16.80;1.40
2174;DHT22;1093;51.424;11.764;2022-09-17T13:28:42;16.90;1.40
2174;DHT22;1093;51.424;11.764;2022-09-17T13:31:09;16.90;1.40
2174;DHT22;1093;51.424;11.764;2022-09-17T13:33:56;17.00;1.40
2174;DHT22;1093;51.424;11.764;2022-09-17T13:36:44;17.10;1.40
2174;DHT22;1093;51.424;11.764;2022-09-17T13:39:40;17.20;1.40
2174;DHT22;1093;51.424;11.764;2022-09-17T13:42:15;17.20;1.40
2174;DHT22;1093;51.424;11.764;2022-09-17T13:44:47;17.30;1.40
2174;DHT22;1093;51.424;11.764;2022-09-17T13:47:25;17.40;1.40
2174;DHT22;1093;51.424;11.764;2022-09-17T13:49:57;17.50;1.40
2174;DHT22;1093;51.424;11.764;2022-09-17T13:52:32;17.50;1.40
2174;DHT22;1093;51.424;11.764;2022-09-17T13:55:00;17.50;1.40
2174;DHT22;1093;51.424;11.764;2022-09-17T13:57:28;17.50;1.40
2174;DHT22;1093;51.424;11.764;2022-09-17T14:00:00;17.50;1.40
2174;DHT22;1093;51.424;11.764;2022-09-17T14:02:30;17.50;1.40
2174;DHT22;1093;51.424;11.764;2022-09-17T14:08:14;17.50;1.40
2174;DHT22;1093;51.424;11.764;2022-09-17T14:10:54;17.50;1.40
2174;DHT22;1093;51.424;11.764;2022-09-17T14:16:33;17.50;1.40
2174;DHT22;1093;51.424;11.764;2022-09-17T14:19:19;17.40;1.40
2174;DHT22;1093;51.424;11.764;2022-09-17T14:21:56;17.50;1.40
2174;DHT22;1093;51.424;11.764;2022-09-17T14:24:26;17.60;1.40
2174;DHT22;1093;51.424;11.764;2022-09-17T14:27:11;17.60;1.40
2174;DHT22;1093;51.424;11.764;2022-09-17T14:30:04;17.70;1.40
2174;DHT22;1093;51.424;11.764;2022-09-17T14:32:39;17.80;1.40
2174;DHT22;1093;51.424;11.764;2022-09-17T14:35:16;17.90;1.40
2174;DHT22;1093;51.424;11.764;2022-09-17T14:37:46;17.90;1.40
2174;DHT22;1093;51.424;11.764;2022-09-17T14:40:17;17.90;1.40
2174;DHT22;1093;51.424;11.764;2022-09-17T14:42:45;17.90;1.40
2174;DHT22;1093;51.424;11.764;2022-09-17T14:45:18;18.00;1.40
2174;DHT22;1093;51.424;11.764;2022-09-17T14:47:48;17.80;1.40
2174;DHT22;1093;51.424;11.764;2022-09-17T14:50:22;17.80;1.40
2174;DHT22;1093;51.424;11.764;2022-09-17T14:52:50;17.70;1.40
2174;DHT22;1093;51.424;11.764;2022-09-17T14:55:23;17.60;1.40
2174;DHT22;1093;51.424;11.764;2022-09-17T14:57:54;17.50;1.40
2174;DHT22;1093;51.424;11.764;2022-09-17T15:00:22;17.40;1.40
2174;DHT22;1093;51.424;11.764;2022-09-17T15:02:52;17.30;1.40
2174;DHT22;1093;51.424;11.764;2022-09-17T15:05:25;17.20;1.40
2174;DHT22;1093;51.424;11.764;2022-09-17T15:08:05;17.20;1.40
2174;DHT22;1093;51.424;11.764;2022-09-17T15:10:35;17.00;1.40
2174;DHT22;1093;51.424;11.764;2022-09-17T15:13:11;16.80;1.40
2174;DHT22;1093;51.424;11.764;2022-09-17T15:15:50;16.70;1.40
2174;DHT22;1093;51.424;11.764;2022-09-17T15:18:19;16.30;1.40
2174;DHT22;1093;51.424;11.764;2022-09-17T15:20:47;16.20;1.40
2174;DHT22;1093;51.424;11.764;2022-09-17T15:23:17;16.00;1.40
2174;DHT22;1093;51.424;11.764;2022-09-17T15:25:47;16.00;1.40
2174;DHT22;1093;51.424;11.764;2022-09-17T15:28:21;15.90;1.40
2174;DHT22;1093;51.424;11.764;2022-09-17T15:30:52;15.90;1.40
2174;DHT22;1093;51.424;11.764;2022-09-17T15:33:20;15.90;1.40
2174;DHT22;1093;51.424;11.764;2022-09-17T15:35:59;15.80;1.40
2174;DHT22;1093;51.424;11.764;2022-09-17T15:38:27;15.70;1.40
2174;DHT22;1093;51.424;11.764;2022-09-17T15:40:54;15.60;1.40
2174;DHT22;1093;51.424;11.764;2022-09-17T15:43:24;15.60;1.40
2174;DHT22;1093;51.424;11.764;2022-09-17T15:45:52;15.60;1.40
2174;DHT22;1093;51.424;11.764;2022-09-17T15:48:36;15.60;1.40
2174;DHT22;1093;51.424;11.764;2022-09-17T15:51:05;15.50;1.40
2174;DHT22;1093;51.424;11.764;2022-09-17T15:53:35;15.50;1.40
2174;DHT22;1093;51.424;11.764;2022-09-17T15:56:04;15.50;1.40
2174;DHT22;1093;51.424;11.764;2022-09-17T15:58:36;15.50;1.40
2174;DHT22;1093;51.424;11.764;2022-09-17T16:04:22;15.40;1.40
2174;DHT22;1093;51.424;11.764;2022-09-17T16:07:01;15.30;1.40
2174;DHT22;1093;51.424;11.764;2022-09-17T16:09:44;15.20;1.40
2174;DHT22;1093;51.424;11.764;2022-09-17T16:12:14;15.10;1.40
2174;DHT22;1093;51.424;11.764;2022-09-17T16:14:45;15.10;1.40
2174;DHT22;1093;51.424;11.764;2022-09-17T16:17:32;15.00;1.40
2174;DHT22;1093;51.424;11.764;2022-09-17T16:20:08;14.80;1.40
2174;DHT22;1093;51.424;11.764;2022-09-17T16:22:35;14.70;1.40
2174;DHT22;1093;51.424;11.764;2022-09-17T16:25:02;14.70;1.40
2174;DHT22;1093;51.424;11.764;2022-09-17T16:27:31;14.50;1.40
2174;DHT22;1093;51.424;11.764;2022-09-17T16:30:02;14.50;1.40
2174;DHT22;1093;51.424;11.764;2022-09-17T16:32:29;14.50;1.40
2174;DHT22;1093;51.424;11.764;2022-09-17T16:34:56;14.40;1.40
2174;DHT22;1093;51.424;11.764;2022-09-17T16:37:24;14.40;1.40
2174;DHT22;1093;51.424;11.764;2022-09-17T16:39:51;14.40;1.40
2174;DHT22;1093;51.424;11.764;2022-09-17T16:42:18;14.40;1.40
2174;DHT22;1093;51.424;11.764;2022-09-17T16:44:45;14.40;1.40
2174;DHT22;1093;51.424;11.764;2022-09-17T16:47:11;14.50;1.40